sensor_id;sensor_type;location;lat;lon;timestamp;P1;durP1;ratioP1;P2;durP2;ratioP2
32932;SDS011;19444;50.518;10.870;2022-12-18T00:00:59;14.55;;;7.53;;
32932;SDS011;19444;50.518;10.870;2022-12-18T00:04:02;19.27;;;7.72;;
32932;SDS011;19444;50.518;10.870;2022-12-18T00:07:01;19.38;;;8.13;;
32932;SDS011;19444;50.518;10.870;2022-12-18T00:09:59;15.00;;;8.77;;
32932;SDS011;19444;50.518;10.870;2022-12-18T00:12:55;19.98;;;10.10;;
32932;SDS011;19444;50.518;10.870;2022-12-18T00:15:52;17.65;;;8.82;;
32932;SDS011;19444;50.518;10.870;2022-12-18T00:18:52;16.10;;;8.13;;
32932;SDS011;19444;50.518;10.870;2022-12-18T00:21:51;14.65;;;7.13;;
32932;SDS011;19444;50.518;10.870;2022-12-18T00:24:49;12.68;;;7.10;;
32932;SDS011;19444;50.518;10.870;2022-12-18T00:27:46;14.50;;;8.65;;
32932;SDS011;19444;50.518;10.870;2022-12-18T00:30:43;15.88;;;8.07;;
32932;SDS011;19444;50.518;10.870;2022-12-18T00:33:40;15.43;;;7.82;;
32932;SDS011;19444;50.518;10.870;2022-12-18T00:36:37;13.27;;;7.60;;
32932;SDS011;19444;50.518;10.870;2022-12-18T00:39:35;14.38;;;8.13;;
32932;SDS011;19444;50.518;10.870;2022-12-18T00:42:32;17.10;;;7.00;;
32932;SDS011;19444;50.518;10.870;2022-12-18T00:45:55;16.30;;;7.57;;
32932;SDS011;19444;50.518;10.870;2022-12-18T00:48:52;15.43;;;8.32;;
32932;SDS011;19444;50.518;10.870;2022-12-18T00:51:49;14.05;;;7.57;;
32932;SDS011;19444;50.518;10.870;2022-12-18T00:54:46;18.45;;;8.95;;
32932;SDS011;19444;50.518;10.870;2022-12-18T00:57:43;20.52;;;10.13;;
32932;SDS011;19444;50.518;10.870;2022-12-18T01:00:40;16.00;;;8.77;;
32932;SDS011;19444;50.518;10.870;2022-12-18T01:03:37;12.38;;;6.97;;
32932;SDS011;19444;50.518;10.870;2022-12-18T01:06:36;10.98;;;6.40;;
32932;SDS011;19444;50.518;10.870;2022-12-18T01:09:32;11.18;;;5.72;;
32932;SDS011;19444;50.518;10.870;2022-12-18T01:12:30;7.82;;;6.40;;
32932;SDS011;19444;50.518;10.870;2022-12-18T01:15:28;15.65;;;7.10;;
32932;SDS011;19444;50.518;10.870;2022-12-18T01:18:25;9.13;;;5.65;;
32932;SDS011;19444;50.518;10.870;2022-12-18T01:21:22;10.45;;;5.90;;
32932;SDS011;19444;50.518;10.870;2022-12-18T01:24:20;8.57;;;6.05;;
32932;SDS011;19444;50.518;10.870;2022-12-18T01:27:17;10.90;;;6.07;;
32932;SDS011;19444;50.518;10.870;2022-12-18T01:30:14;8.45;;;5.60;;
32932;SDS011;19444;50.518;10.870;2022-12-18T01:33:11;11.35;;;6.07;;
32932;SDS011;19444;50.518;10.870;2022-12-18T01:36:08;11.63;;;6.72;;
32932;SDS011;19444;50.518;10.870;2022-12-18T01:39:14;9.23;;;6.05;;
32932;SDS011;19444;50.518;10.870;2022-12-18T01:42:12;9.50;;;6.30;;
32932;SDS011;19444;50.518;10.870;2022-12-18T01:48:08;10.13;;;6.75;;
32932;SDS011;19444;50.518;10.870;2022-12-18T01:51:06;6.80;;;4.70;;
32932;SDS011;19444;50.518;10.870;2022-12-18T01:54:05;12.73;;;7.88;;
32932;SDS011;19444;50.518;10.870;2022-12-18T01:57:02;10.25;;;5.55;;
32932;SDS011;19444;50.518;10.870;2022-12-18T02:00:00;9.20;;;4.97;;
32932;SDS011;19444;50.518;10.870;2022-12-18T02:03:04;8.35;;;4.82;;
32932;SDS011;19444;50.518;10.870;2022-12-18T02:06:06;5.95;;;4.63;;
32932;SDS011;19444;50.518;10.870;2022-12-18T02:09:14;4.57;;;4.15;;
32932;SDS011;19444;50.518;10.870;2022-12-18T02:12:33;8.07;;;5.85;;
32932;SDS011;19444;50.518;10.870;2022-12-18T02:19:04;7.85;;;5.03;;
32932;SDS011;19444;50.518;10.870;2022-12-18T02:22:20;11.13;;;5.22;;
32932;SDS011;19444;50.518;10.870;2022-12-18T02:29:11;6.15;;;4.80;;
32932;SDS011;19444;50.518;10.870;2022-12-18T02:32:16;7.05;;;5.30;;
32932;SDS011;19444;50.518;10.870;2022-12-18T02:35:22;7.00;;;5.03;;
32932;SDS011;19444;50.518;10.870;2022-12-18T02:38:21;6.63;;;4.50;;
32932;SDS011;19444;50.518;10.870;2022-12-18T02:41:22;6.82;;;5.20;;
32932;SDS011;19444;50.518;10.870;2022-12-18T02:44:21;4.80;;;4.13;;
32932;SDS011;19444;50.518;10.870;2022-12-18T02:47:19;5.57;;;4.07;;
32932;SDS011;19444;50.518;10.870;2022-12-18T02:50:22;7.95;;;4.07;;
32932;SDS011;19444;50.518;10.870;2022-12-18T02:57:34;6.47;;;4.28;;
32932;SDS011;19444;50.518;10.870;2022-12-18T03:06:56;10.27;;;5.13;;
32932;SDS011;19444;50.518;10.870;2022-12-18T03:09:58;9.30;;;4.93;;
32932;SDS011;19444;50.518;10.870;2022-12-18T03:13:02;8.93;;;4.80;;
32932;SDS011;19444;50.518;10.870;2022-12-18T03:16:09;7.78;;;4.70;;
32932;SDS011;19444;50.518;10.870;2022-12-18T03:19:11;9.00;;;4.68;;
32932;SDS011;19444;50.518;10.870;2022-12-18T03:22:16;6.43;;;3.80;;
32932;SDS011;19444;50.518;10.870;2022-12-18T03:25:14;7.60;;;4.97;;
32932;SDS011;19444;50.518;10.870;2022-12-18T03:28:13;8.30;;;4.50;;
32932;SDS011;19444;50.518;10.870;2022-12-18T03:31:15;8.02;;;4.82;;
32932;SDS011;19444;50.518;10.870;2022-12-18T03:34:15;5.72;;;3.85;;
32932;SDS011;19444;50.518;10.870;2022-12-18T03:37:19;4.20;;;3.63;;
32932;SDS011;19444;50.518;10.870;2022-12-18T03:40:16;7.40;;;3.90;;
32932;SDS011;19444;50.518;10.870;2022-12-18T03:43:18;7.45;;;4.47;;
32932;SDS011;19444;50.518;10.870;2022-12-18T03:53:09;11.23;;;4.32;;
32932;SDS011;19444;50.518;10.870;2022-12-18T03:56:20;8.65;;;4.80;;
32932;SDS011;19444;50.518;10.870;2022-12-18T04:02:18;12.13;;;4.28;;
32932;SDS011;19444;50.518;10.870;2022-12-18T04:05:16;6.95;;;3.83;;
32932;SDS011;19444;50.518;10.870;2022-12-18T04:08:15;5.43;;;3.92;;
32932;SDS011;19444;50.518;10.870;2022-12-18T04:11:13;4.65;;;3.83;;
32932;SDS011;19444;50.518;10.870;2022-12-18T04:14:10;8.15;;;4.07;;
32932;SDS011;19444;50.518;10.870;2022-12-18T04:17:13;7.82;;;3.70;;
32932;SDS011;19444;50.518;10.870;2022-12-18T04:20:10;3.67;;;3.20;;
32932;SDS011;19444;50.518;10.870;2022-12-18T04:23:07;4.20;;;3.30;;
32932;SDS011;19444;50.518;10.870;2022-12-18T04:26:04;6.25;;;3.58;;
32932;SDS011;19444;50.518;10.870;2022-12-18T04:29:01;5.53;;;3.33;;
32932;SDS011;19444;50.518;10.870;2022-12-18T04:31:58;6.53;;;4.07;;
32932;SDS011;19444;50.518;10.870;2022-12-18T04:34:56;9.27;;;4.15;;
32932;SDS011;19444;50.518;10.870;2022-12-18T04:37:53;4.57;;;4.18;;
32932;SDS011;19444;50.518;10.870;2022-12-18T04:40:50;7.38;;;3.78;;
32932;SDS011;19444;50.518;10.870;2022-12-18T04:43:46;7.07;;;4.75;;
32932;SDS011;19444;50.518;10.870;2022-12-18T04:46:43;4.90;;;4.25;;
32932;SDS011;19444;50.518;10.870;2022-12-18T04:49:41;7.32;;;3.97;;
32932;SDS011;19444;50.518;10.870;2022-12-18T04:52:37;5.35;;;3.72;;
32932;SDS011;19444;50.518;10.870;2022-12-18T04:55:34;7.70;;;4.97;;
32932;SDS011;19444;50.518;10.870;2022-12-18T04:58:31;10.90;;;5.40;;
32932;SDS011;19444;50.518;10.870;2022-12-18T05:01:28;7.25;;;5.05;;
32932;SDS011;19444;50.518;10.870;2022-12-18T05:04:30;6.85;;;4.47;;
32932;SDS011;19444;50.518;10.870;2022-12-18T05:07:26;4.95;;;3.75;;
32932;SDS011;19444;50.518;10.870;2022-12-18T05:10:23;10.55;;;6.22;;
32932;SDS011;19444;50.518;10.870;2022-12-18T05:13:20;4.60;;;3.92;;
32932;SDS011;19444;50.518;10.870;2022-12-18T05:16:17;8.88;;;4.97;;
32932;SDS011;19444;50.518;10.870;2022-12-18T05:19:14;7.22;;;4.93;;
32932;SDS011;19444;50.518;10.870;2022-12-18T05:22:11;5.55;;;4.07;;
32932;SDS011;19444;50.518;10.870;2022-12-18T05:25:08;6.47;;;4.55;;
32932;SDS011;19444;50.518;10.870;2022-12-18T05:28:05;5.15;;;4.13;;
32932;SDS011;19444;50.518;10.870;2022-12-18T05:31:02;5.47;;;3.70;;
32932;SDS011;19444;50.518;10.870;2022-12-18T05:34:00;4.15;;;3.75;;
32932;SDS011;19444;50.518;10.870;2022-12-18T05:36:57;4.63;;;3.63;;
32932;SDS011;19444;50.518;10.870;2022-12-18T05:39:54;3.78;;;3.42;;
32932;SDS011;19444;50.518;10.870;2022-12-18T05:42:51;7.70;;;4.60;;
32932;SDS011;19444;50.518;10.870;2022-12-18T05:45:48;5.32;;;3.75;;
32932;SDS011;19444;50.518;10.870;2022-12-18T05:48:46;4.68;;;4.07;;
32932;SDS011;19444;50.518;10.870;2022-12-18T05:51:44;5.15;;;4.00;;
32932;SDS011;19444;50.518;10.870;2022-12-18T05:54:42;5.68;;;3.67;;
32932;SDS011;19444;50.518;10.870;2022-12-18T05:57:38;6.32;;;3.20;;
32932;SDS011;19444;50.518;10.870;2022-12-18T06:00:39;3.85;;;3.45;;
32932;SDS011;19444;50.518;10.870;2022-12-18T06:03:38;4.50;;;3.40;;
32932;SDS011;19444;50.518;10.870;2022-12-18T06:06:36;6.00;;;3.42;;
32932;SDS011;19444;50.518;10.870;2022-12-18T06:09:34;3.83;;;3.53;;
32932;SDS011;19444;50.518;10.870;2022-12-18T06:12:31;3.33;;;3.05;;
32932;SDS011;19444;50.518;10.870;2022-12-18T06:15:29;3.78;;;2.97;;
32932;SDS011;19444;50.518;10.870;2022-12-18T06:18:26;4.38;;;3.45;;
32932;SDS011;19444;50.518;10.870;2022-12-18T06:21:23;6.45;;;3.63;;
32932;SDS011;19444;50.518;10.870;2022-12-18T06:24:20;3.22;;;2.85;;
32932;SDS011;19444;50.518;10.870;2022-12-18T06:27:17;3.38;;;3.08;;
32932;SDS011;19444;50.518;10.870;2022-12-18T06:30:14;3.53;;;3.22;;
32932;SDS011;19444;50.518;10.870;2022-12-18T06:33:11;3.78;;;2.88;;
32932;SDS011;19444;50.518;10.870;2022-12-18T06:36:10;2.85;;;2.58;;
32932;SDS011;19444;50.518;10.870;2022-12-18T06:39:09;2.88;;;2.67;;
32932;SDS011;19444;50.518;10.870;2022-12-18T06:42:06;4.00;;;3.00;;
32932;SDS011;19444;50.518;10.870;2022-12-18T06:45:03;3.80;;;3.40;;
32932;SDS011;19444;50.518;10.870;2022-12-18T06:48:00;5.45;;;3.78;;
32932;SDS011;19444;50.518;10.870;2022-12-18T06:50:57;6.72;;;4.60;;
32932;SDS011;19444;50.518;10.870;2022-12-18T06:53:54;7.57;;;4.57;;
32932;SDS011;19444;50.518;10.870;2022-12-18T06:56:51;12.98;;;7.47;;
32932;SDS011;19444;50.518;10.870;2022-12-18T06:59:48;6.88;;;5.28;;
32932;SDS011;19444;50.518;10.870;2022-12-18T07:02:45;7.65;;;4.93;;
32932;SDS011;19444;50.518;10.870;2022-12-18T07:05:42;11.07;;;6.40;;
32932;SDS011;19444;50.518;10.870;2022-12-18T07:08:39;7.03;;;5.60;;
32932;SDS011;19444;50.518;10.870;2022-12-18T07:11:36;9.52;;;7.35;;
32932;SDS011;19444;50.518;10.870;2022-12-18T07:14:33;7.70;;;6.90;;
32932;SDS011;19444;50.518;10.870;2022-12-18T07:17:30;7.60;;;5.78;;
32932;SDS011;19444;50.518;10.870;2022-12-18T07:20:27;21.63;;;11.95;;
32932;SDS011;19444;50.518;10.870;2022-12-18T07:23:24;16.25;;;10.65;;
32932;SDS011;19444;50.518;10.870;2022-12-18T07:26:21;19.35;;;9.77;;
32932;SDS011;19444;50.518;10.870;2022-12-18T07:29:18;14.50;;;8.27;;
32932;SDS011;19444;50.518;10.870;2022-12-18T07:32:15;63.42;;;23.25;;
32932;SDS011;19444;50.518;10.870;2022-12-18T07:35:12;54.65;;;21.55;;
32932;SDS011;19444;50.518;10.870;2022-12-18T07:38:09;33.22;;;17.23;;
32932;SDS011;19444;50.518;10.870;2022-12-18T07:41:10;10.15;;;7.95;;
32932;SDS011;19444;50.518;10.870;2022-12-18T07:44:09;16.40;;;9.35;;
32932;SDS011;19444;50.518;10.870;2022-12-18T07:47:07;12.13;;;8.18;;
32932;SDS011;19444;50.518;10.870;2022-12-18T07:50:07;22.80;;;12.27;;
32932;SDS011;19444;50.518;10.870;2022-12-18T07:53:04;14.07;;;9.75;;
32932;SDS011;19444;50.518;10.870;2022-12-18T07:56:05;15.32;;;10.10;;
32932;SDS011;19444;50.518;10.870;2022-12-18T07:59:25;17.45;;;10.75;;
32932;SDS011;19444;50.518;10.870;2022-12-18T08:02:22;17.65;;;11.20;;
32932;SDS011;19444;50.518;10.870;2022-12-18T08:05:19;34.90;;;15.55;;
32932;SDS011;19444;50.518;10.870;2022-12-18T08:08:17;30.27;;;15.02;;
32932;SDS011;19444;50.518;10.870;2022-12-18T08:11:14;25.60;;;12.85;;
32932;SDS011;19444;50.518;10.870;2022-12-18T08:14:10;12.80;;;8.65;;
32932;SDS011;19444;50.518;10.870;2022-12-18T08:17:08;17.58;;;9.20;;
32932;SDS011;19444;50.518;10.870;2022-12-18T08:20:05;13.25;;;9.52;;
32932;SDS011;19444;50.518;10.870;2022-12-18T08:23:02;18.20;;;10.65;;
32932;SDS011;19444;50.518;10.870;2022-12-18T08:25:59;15.93;;;10.43;;
32932;SDS011;19444;50.518;10.870;2022-12-18T08:28:57;15.30;;;10.68;;
32932;SDS011;19444;50.518;10.870;2022-12-18T08:31:55;22.60;;;13.98;;
32932;SDS011;19444;50.518;10.870;2022-12-18T08:34:53;23.92;;;14.80;;
32932;SDS011;19444;50.518;10.870;2022-12-18T08:37:50;25.60;;;14.30;;
32932;SDS011;19444;50.518;10.870;2022-12-18T08:40:47;29.50;;;16.20;;
32932;SDS011;19444;50.518;10.870;2022-12-18T08:43:44;43.05;;;20.88;;
32932;SDS011;19444;50.518;10.870;2022-12-18T08:47:00;28.80;;;16.15;;
32932;SDS011;19444;50.518;10.870;2022-12-18T08:49:56;33.58;;;18.85;;
32932;SDS011;19444;50.518;10.870;2022-12-18T08:52:53;42.33;;;23.38;;
32932;SDS011;19444;50.518;10.870;2022-12-18T08:55:50;37.58;;;21.15;;
32932;SDS011;19444;50.518;10.870;2022-12-18T08:58:47;41.30;;;24.25;;
32932;SDS011;19444;50.518;10.870;2022-12-18T09:01:49;48.78;;;28.52;;
32932;SDS011;19444;50.518;10.870;2022-12-18T09:04:46;49.15;;;28.48;;
32932;SDS011;19444;50.518;10.870;2022-12-18T09:07:52;36.78;;;22.17;;
32932;SDS011;19444;50.518;10.870;2022-12-18T09:10:49;42.97;;;22.60;;
32932;SDS011;19444;50.518;10.870;2022-12-18T09:13:47;40.95;;;21.35;;
32932;SDS011;19444;50.518;10.870;2022-12-18T09:16:44;39.78;;;22.02;;
32932;SDS011;19444;50.518;10.870;2022-12-18T09:19:41;34.00;;;19.75;;
32932;SDS011;19444;50.518;10.870;2022-12-18T09:22:38;32.60;;;19.13;;
32932;SDS011;19444;50.518;10.870;2022-12-18T09:25:35;28.83;;;16.60;;
32932;SDS011;19444;50.518;10.870;2022-12-18T09:28:33;31.35;;;17.15;;
32932;SDS011;19444;50.518;10.870;2022-12-18T09:31:30;32.35;;;17.92;;
32932;SDS011;19444;50.518;10.870;2022-12-18T09:34:27;28.40;;;17.73;;
32932;SDS011;19444;50.518;10.870;2022-12-18T09:37:24;20.40;;;13.45;;
32932;SDS011;19444;50.518;10.870;2022-12-18T09:40:22;35.92;;;23.73;;
32932;SDS011;19444;50.518;10.870;2022-12-18T09:46:40;27.30;;;14.85;;
32932;SDS011;19444;50.518;10.870;2022-12-18T09:49:50;30.45;;;17.50;;
32932;SDS011;19444;50.518;10.870;2022-12-18T09:52:58;30.40;;;17.42;;
32932;SDS011;19444;50.518;10.870;2022-12-18T09:56:02;22.27;;;13.57;;
32932;SDS011;19444;50.518;10.870;2022-12-18T09:59:01;21.27;;;13.40;;
32932;SDS011;19444;50.518;10.870;2022-12-18T10:01:59;29.30;;;16.85;;
32932;SDS011;19444;50.518;10.870;2022-12-18T10:05:12;21.23;;;13.38;;
32932;SDS011;19444;50.518;10.870;2022-12-18T10:21:45;9.75;;;7.28;;
32932;SDS011;19444;50.518;10.870;2022-12-18T10:25:18;11.38;;;6.85;;
32932;SDS011;19444;50.518;10.870;2022-12-18T10:28:24;15.43;;;7.72;;
32932;SDS011;19444;50.518;10.870;2022-12-18T10:31:23;14.10;;;8.15;;
32932;SDS011;19444;50.518;10.870;2022-12-18T10:34:20;10.00;;;6.13;;
32932;SDS011;19444;50.518;10.870;2022-12-18T10:37:19;7.68;;;4.82;;
32932;SDS011;19444;50.518;10.870;2022-12-18T10:40:18;14.30;;;6.38;;
32932;SDS011;19444;50.518;10.870;2022-12-18T10:43:36;32.42;;;15.73;;
32932;SDS011;19444;50.518;10.870;2022-12-18T10:46:35;34.40;;;15.07;;
32932;SDS011;19444;50.518;10.870;2022-12-18T10:49:32;22.75;;;12.30;;
32932;SDS011;19444;50.518;10.870;2022-12-18T10:52:30;22.17;;;11.85;;
32932;SDS011;19444;50.518;10.870;2022-12-18T10:55:30;13.63;;;6.43;;
32932;SDS011;19444;50.518;10.870;2022-12-18T10:58:37;6.75;;;3.83;;
32932;SDS011;19444;50.518;10.870;2022-12-18T11:01:52;8.13;;;5.13;;
32932;SDS011;19444;50.518;10.870;2022-12-18T11:04:52;9.02;;;6.07;;
32932;SDS011;19444;50.518;10.870;2022-12-18T11:07:49;10.07;;;7.15;;
32932;SDS011;19444;50.518;10.870;2022-12-18T11:10:47;4.47;;;3.60;;
32932;SDS011;19444;50.518;10.870;2022-12-18T11:13:48;7.75;;;4.85;;
32932;SDS011;19444;50.518;10.870;2022-12-18T11:17:21;4.97;;;3.47;;
32932;SDS011;19444;50.518;10.870;2022-12-18T11:20:31;6.15;;;3.03;;
32932;SDS011;19444;50.518;10.870;2022-12-18T11:23:32;6.78;;;4.05;;
32932;SDS011;19444;50.518;10.870;2022-12-18T11:26:33;7.78;;;4.15;;
32932;SDS011;19444;50.518;10.870;2022-12-18T11:29:33;6.68;;;3.58;;
32932;SDS011;19444;50.518;10.870;2022-12-18T11:32:44;6.07;;;2.85;;
32932;SDS011;19444;50.518;10.870;2022-12-18T11:35:52;4.70;;;3.05;;
32932;SDS011;19444;50.518;10.870;2022-12-18T11:38:53;5.75;;;3.08;;
32932;SDS011;19444;50.518;10.870;2022-12-18T11:42:57;6.43;;;3.03;;
32932;SDS011;19444;50.518;10.870;2022-12-18T11:45:33;7.18;;;3.53;;
32932;SDS011;19444;50.518;10.870;2022-12-18T11:48:37;7.40;;;3.50;;
32932;SDS011;19444;50.518;10.870;2022-12-18T11:52:23;3.80;;;2.40;;
32932;SDS011;19444;50.518;10.870;2022-12-18T11:59:32;5.22;;;2.67;;
32932;SDS011;19444;50.518;10.870;2022-12-18T12:20:15;17.13;;;9.23;;
32932;SDS011;19444;50.518;10.870;2022-12-18T12:23:39;4.95;;;3.28;;
32932;SDS011;19444;50.518;10.870;2022-12-18T12:27:33;8.68;;;4.00;;
32932;SDS011;19444;50.518;10.870;2022-12-18T12:31:10;5.00;;;3.10;;
32932;SDS011;19444;50.518;10.870;2022-12-18T12:34:17;8.43;;;5.10;;
32932;SDS011;19444;50.518;10.870;2022-12-18T12:40:43;4.32;;;2.40;;
32932;SDS011;19444;50.518;10.870;2022-12-18T12:44:03;4.90;;;2.45;;
32932;SDS011;19444;50.518;10.870;2022-12-18T12:47:09;4.22;;;2.83;;
32932;SDS011;19444;50.518;10.870;2022-12-18T12:50:18;5.63;;;2.80;;
32932;SDS011;19444;50.518;10.870;2022-12-18T12:53:22;4.57;;;2.13;;
32932;SDS011;19444;50.518;10.870;2022-12-18T12:56:32;5.13;;;3.47;;
32932;SDS011;19444;50.518;10.870;2022-12-18T12:59:47;8.88;;;5.97;;
32932;SDS011;19444;50.518;10.870;2022-12-18T13:06:46;3.78;;;3.03;;
32932;SDS011;19444;50.518;10.870;2022-12-18T13:13:20;8.18;;;4.32;;
32932;SDS011;19444;50.518;10.870;2022-12-18T13:16:20;8.10;;;3.20;;
32932;SDS011;19444;50.518;10.870;2022-12-18T13:19:23;9.30;;;4.28;;
32932;SDS011;19444;50.518;10.870;2022-12-18T13:22:23;5.82;;;3.00;;
32932;SDS011;19444;50.518;10.870;2022-12-18T13:25:35;36.28;;;18.92;;
32932;SDS011;19444;50.518;10.870;2022-12-18T13:34:46;7.25;;;4.13;;
32932;SDS011;19444;50.518;10.870;2022-12-18T13:37:44;6.07;;;2.13;;
32932;SDS011;19444;50.518;10.870;2022-12-18T13:43:48;7.13;;;2.90;;
32932;SDS011;19444;50.518;10.870;2022-12-18T13:46:48;4.03;;;2.30;;
32932;SDS011;19444;50.518;10.870;2022-12-18T13:49:47;8.30;;;3.90;;
32932;SDS011;19444;50.518;10.870;2022-12-18T13:52:44;5.18;;;2.95;;
32932;SDS011;19444;50.518;10.870;2022-12-18T13:55:43;4.70;;;2.63;;
32932;SDS011;19444;50.518;10.870;2022-12-18T13:58:41;4.07;;;2.22;;
32932;SDS011;19444;50.518;10.870;2022-12-18T14:01:43;7.35;;;3.15;;
32932;SDS011;19444;50.518;10.870;2022-12-18T14:04:49;3.10;;;1.60;;
32932;SDS011;19444;50.518;10.870;2022-12-18T14:07:47;4.55;;;2.13;;
32932;SDS011;19444;50.518;10.870;2022-12-18T14:10:47;3.73;;;1.87;;
32932;SDS011;19444;50.518;10.870;2022-12-18T14:13:47;2.08;;;1.85;;
32932;SDS011;19444;50.518;10.870;2022-12-18T14:16:46;5.78;;;2.83;;
32932;SDS011;19444;50.518;10.870;2022-12-18T14:19:47;4.50;;;1.98;;
32932;SDS011;19444;50.518;10.870;2022-12-18T14:22:47;6.88;;;3.17;;
32932;SDS011;19444;50.518;10.870;2022-12-18T14:25:45;6.53;;;4.47;;
32932;SDS011;19444;50.518;10.870;2022-12-18T14:28:43;4.53;;;3.10;;
32932;SDS011;19444;50.518;10.870;2022-12-18T14:31:40;4.70;;;1.70;;
32932;SDS011;19444;50.518;10.870;2022-12-18T14:34:37;5.22;;;2.30;;
32932;SDS011;19444;50.518;10.870;2022-12-18T14:37:34;5.22;;;3.20;;
32932;SDS011;19444;50.518;10.870;2022-12-18T14:40:31;5.30;;;2.80;;
32932;SDS011;19444;50.518;10.870;2022-12-18T14:43:29;5.43;;;1.90;;
32932;SDS011;19444;50.518;10.870;2022-12-18T14:46:37;7.03;;;3.58;;
32932;SDS011;19444;50.518;10.870;2022-12-18T14:49:36;5.35;;;2.45;;
32932;SDS011;19444;50.518;10.870;2022-12-18T14:52:34;11.07;;;6.43;;
32932;SDS011;19444;50.518;10.870;2022-12-18T14:55:31;4.95;;;2.92;;
32932;SDS011;19444;50.518;10.870;2022-12-18T14:58:28;4.50;;;2.58;;
32932;SDS011;19444;50.518;10.870;2022-12-18T15:04:35;6.38;;;3.33;;
32932;SDS011;19444;50.518;10.870;2022-12-18T15:07:41;8.38;;;4.97;;
32932;SDS011;19444;50.518;10.870;2022-12-18T15:10:46;6.47;;;2.78;;
32932;SDS011;19444;50.518;10.870;2022-12-18T15:13:44;6.60;;;2.92;;
32932;SDS011;19444;50.518;10.870;2022-12-18T15:16:41;7.30;;;3.15;;
32932;SDS011;19444;50.518;10.870;2022-12-18T15:22:39;4.90;;;2.75;;
32932;SDS011;19444;50.518;10.870;2022-12-18T15:25:37;4.80;;;2.85;;
32932;SDS011;19444;50.518;10.870;2022-12-18T15:28:35;2.92;;;2.08;;
32932;SDS011;19444;50.518;10.870;2022-12-18T15:32:03;4.90;;;2.60;;
32932;SDS011;19444;50.518;10.870;2022-12-18T15:35:03;2.90;;;2.30;;
32932;SDS011;19444;50.518;10.870;2022-12-18T15:38:12;5.30;;;3.10;;
32932;SDS011;19444;50.518;10.870;2022-12-18T15:41:11;3.58;;;2.53;;
32932;SDS011;19444;50.518;10.870;2022-12-18T15:44:22;5.85;;;2.67;;
32932;SDS011;19444;50.518;10.870;2022-12-18T15:47:20;5.50;;;2.63;;
32932;SDS011;19444;50.518;10.870;2022-12-18T15:50:17;4.88;;;2.70;;
32932;SDS011;19444;50.518;10.870;2022-12-18T15:53:14;7.93;;;3.53;;
32932;SDS011;19444;50.518;10.870;2022-12-18T15:56:11;6.70;;;3.78;;
32932;SDS011;19444;50.518;10.870;2022-12-18T15:59:28;10.80;;;6.28;;
32932;SDS011;19444;50.518;10.870;2022-12-18T16:02:25;6.85;;;2.95;;
32932;SDS011;19444;50.518;10.870;2022-12-18T16:05:24;5.85;;;3.10;;
32932;SDS011;19444;50.518;10.870;2022-12-18T16:08:23;8.27;;;3.08;;
32932;SDS011;19444;50.518;10.870;2022-12-18T16:11:21;6.85;;;2.72;;
32932;SDS011;19444;50.518;10.870;2022-12-18T16:14:34;7.65;;;3.85;;
32932;SDS011;19444;50.518;10.870;2022-12-18T16:17:31;12.27;;;7.53;;
32932;SDS011;19444;50.518;10.870;2022-12-18T16:20:28;6.47;;;3.65;;
32932;SDS011;19444;50.518;10.870;2022-12-18T16:23:25;10.30;;;5.85;;
32932;SDS011;19444;50.518;10.870;2022-12-18T16:26:23;6.75;;;3.67;;
32932;SDS011;19444;50.518;10.870;2022-12-18T16:29:20;6.05;;;3.30;;
32932;SDS011;19444;50.518;10.870;2022-12-18T16:32:23;8.43;;;3.92;;
32932;SDS011;19444;50.518;10.870;2022-12-18T16:35:20;5.57;;;3.10;;
32932;SDS011;19444;50.518;10.870;2022-12-18T16:38:17;7.38;;;3.70;;
32932;SDS011;19444;50.518;10.870;2022-12-18T16:41:18;6.57;;;3.83;;
32932;SDS011;19444;50.518;10.870;2022-12-18T16:44:27;6.80;;;3.80;;
32932;SDS011;19444;50.518;10.870;2022-12-18T16:47:24;9.18;;;4.38;;
32932;SDS011;19444;50.518;10.870;2022-12-18T16:50:21;5.15;;;3.28;;
32932;SDS011;19444;50.518;10.870;2022-12-18T16:53:17;5.18;;;2.90;;
32932;SDS011;19444;50.518;10.870;2022-12-18T16:56:15;7.97;;;4.57;;
32932;SDS011;19444;50.518;10.870;2022-12-18T16:59:12;14.30;;;5.55;;
32932;SDS011;19444;50.518;10.870;2022-12-18T17:02:12;7.47;;;4.32;;
32932;SDS011;19444;50.518;10.870;2022-12-18T17:05:12;9.13;;;4.50;;
32932;SDS011;19444;50.518;10.870;2022-12-18T17:08:09;6.95;;;3.60;;
32932;SDS011;19444;50.518;10.870;2022-12-18T17:11:06;8.23;;;4.30;;
32932;SDS011;19444;50.518;10.870;2022-12-18T17:14:07;7.85;;;4.28;;
32932;SDS011;19444;50.518;10.870;2022-12-18T17:17:08;9.32;;;4.72;;
32932;SDS011;19444;50.518;10.870;2022-12-18T17:20:20;11.80;;;6.20;;
32932;SDS011;19444;50.518;10.870;2022-12-18T17:23:17;10.38;;;5.28;;
32932;SDS011;19444;50.518;10.870;2022-12-18T17:26:14;7.22;;;3.65;;
32932;SDS011;19444;50.518;10.870;2022-12-18T17:29:11;8.63;;;4.57;;
32932;SDS011;19444;50.518;10.870;2022-12-18T17:32:11;6.97;;;3.60;;
32932;SDS011;19444;50.518;10.870;2022-12-18T17:35:08;9.23;;;3.80;;
32932;SDS011;19444;50.518;10.870;2022-12-18T17:38:05;6.60;;;3.08;;
32932;SDS011;19444;50.518;10.870;2022-12-18T17:41:02;7.43;;;3.53;;
32932;SDS011;19444;50.518;10.870;2022-12-18T17:44:02;8.38;;;4.63;;
32932;SDS011;19444;50.518;10.870;2022-12-18T17:47:00;4.53;;;2.93;;
32932;SDS011;19444;50.518;10.870;2022-12-18T17:49:58;8.65;;;4.22;;
32932;SDS011;19444;50.518;10.870;2022-12-18T17:52:55;6.97;;;3.53;;
32932;SDS011;19444;50.518;10.870;2022-12-18T17:55:55;11.20;;;4.25;;
32932;SDS011;19444;50.518;10.870;2022-12-18T17:58:56;9.68;;;5.20;;
32932;SDS011;19444;50.518;10.870;2022-12-18T18:01:52;8.68;;;4.47;;
32932;SDS011;19444;50.518;10.870;2022-12-18T18:04:50;8.02;;;4.45;;
32932;SDS011;19444;50.518;10.870;2022-12-18T18:07:48;10.90;;;4.75;;
32932;SDS011;19444;50.518;10.870;2022-12-18T18:10:46;10.07;;;4.28;;
32932;SDS011;19444;50.518;10.870;2022-12-18T18:13:44;10.38;;;5.70;;
32932;SDS011;19444;50.518;10.870;2022-12-18T18:16:55;12.82;;;6.20;;
32932;SDS011;19444;50.518;10.870;2022-12-18T18:19:59;8.98;;;4.22;;
32932;SDS011;19444;50.518;10.870;2022-12-18T18:22:56;7.07;;;3.13;;
32932;SDS011;19444;50.518;10.870;2022-12-18T18:25:53;8.73;;;4.63;;
32932;SDS011;19444;50.518;10.870;2022-12-18T18:28:52;7.97;;;4.82;;
32932;SDS011;19444;50.518;10.870;2022-12-18T18:31:49;8.48;;;5.32;;
32932;SDS011;19444;50.518;10.870;2022-12-18T18:34:46;7.68;;;4.35;;
32932;SDS011;19444;50.518;10.870;2022-12-18T18:37:43;7.53;;;4.82;;
32932;SDS011;19444;50.518;10.870;2022-12-18T18:40:45;7.63;;;3.90;;
32932;SDS011;19444;50.518;10.870;2022-12-18T18:43:42;8.10;;;4.35;;
32932;SDS011;19444;50.518;10.870;2022-12-18T18:46:39;7.05;;;3.83;;
32932;SDS011;19444;50.518;10.870;2022-12-18T18:49:36;7.05;;;4.50;;
32932;SDS011;19444;50.518;10.870;2022-12-18T18:52:34;6.38;;;4.93;;
32932;SDS011;19444;50.518;10.870;2022-12-18T18:55:33;4.00;;;2.20;;
32932;SDS011;19444;50.518;10.870;2022-12-18T18:58:30;8.02;;;4.70;;
32932;SDS011;19444;50.518;10.870;2022-12-18T19:01:26;4.55;;;3.53;;
32932;SDS011;19444;50.518;10.870;2022-12-18T19:04:24;6.82;;;3.83;;
32932;SDS011;19444;50.518;10.870;2022-12-18T19:07:20;5.25;;;3.10;;
32932;SDS011;19444;50.518;10.870;2022-12-18T19:10:26;7.57;;;4.47;;
32932;SDS011;19444;50.518;10.870;2022-12-18T19:13:23;6.88;;;4.03;;
32932;SDS011;19444;50.518;10.870;2022-12-18T19:16:23;6.75;;;3.95;;
32932;SDS011;19444;50.518;10.870;2022-12-18T19:19:23;10.27;;;5.68;;